Aviation Digital Data Service (ADDS)

Output produced by TAFs form (0958 UTC 26 February 2017)
found at http://www.aviationweather.gov/adds/tafs/
 
KDEN 260953Z 04008KT 10SM FEW220 M09/M16 A2976 RMK AO2 SLP101 T10941156
KDEN 260838Z 2609/2712 26010KT P6SM FEW080 
     FM261400 20008KT P6SM SCT220 
     FM262200 12007KT P6SM SCT220 
     FM270100 18007KT P6SM SCT220 
     FM270700 21008KT P6SM SCT120 BKN200